Terminal Aerodrome Forecast
Issued by NWS Charleston, WV

Current Version | Previous Version | Graphics & Text | Print | Product List | Glossary On
Versions: 1 2 3 4 5 6 7 8 9 10 11 12 13 14 15 16 17 18 19 20 21 22
000
FTUS41 KRLX 270906 AAA
TAFHTS
TAF AMD
KHTS 270906Z 2709/2806 19005KT P6SM BKN060
     FM271200 22005KT P6SM OVC030
     FM271700 25005KT P6SM BKN035
     FM271900 25005KT 6SM SHRA VCTS BKN045CB
     FM280300 00000KT P6SM BKN035=

USA.gov is the U.S. government's official web portal to all federal, state and local government web resources and services.